KMMU

Morristown Municipal Airport

Morristown, New Jersey, USA
METAR KMMU 271145Z 04005KT 4SM RA BR SCT012 BKN037 OVC090 18/17 A2999
Observed Flight Rules
May-27 @ 11:45 UTC (21 minutes ago) Marginal Visual Flight Rules
Wind Visibility Clouds Conditions
40° at 5 knots 4 miles
  • Scattered at 1,200' AGL
  • Broken at 3,700' AGL
  • Overcast at 9,000' AGL
  • Rain
  • Mist
Temperatures Readings
Current 18°C / 64°F
Dewpoint 17°C / 63°F
Humidity 94%
Altimeter 29.99" Hg
Pressure 1016 hPa
Elevation 57
METAR KMMU 271145Z 04005KT 4SM RA BR SCT012 BKN037 OVC090 18/17 A2999
Observed Flight Rules
May-27 @ 11:45 UTC
(21 minutes ago)
MVFR
Wind Visibility
40° at 5 knots 4 miles
Clouds
  • Scattered at 1,200' AGL
  • Broken at 3,700' AGL
  • Overcast at 9,000' AGL
Conditions
  • Rain
  • Mist
Temperature Dewpoint
18°C / 64°F 17°C / 63°F
Humidity Altimeter Pressure
94% 29.99" Hg 1016 hPa